Sc Draco — VRQF3 — position and weather

sailwx.info

Track history (hours):
 
Tides and Currents Weather Stations Pressure Air Temp Water Temp Dewpoint Dewpoint Depression Visibility Wind Speed Wind Dir Waves Ship Positions

Sc Draco

Last reported at 2018-May-03 08:53 UTC. Time now 2018-May-27 11:42 UTC.
Position N 41°38' E 141°29'.
Warning: this ship's position is 24 days out of date.

Length 182 m; draft 10.2 m.

Type: Ship. MMSI: 477439800.

Date/timePositionNaut miles runAvg speedWind from/ knotsBaromVisibWave heightAir tempDewpointWater temp
2018-May-03 08:53N 41°38' E 141°29'512.6
2018-May-03 08:30N 41°38' E 141°22'612.7
2018-May-03 08:00N 41°38' E 141°13'714.1
2018-May-03 07:30N 41°38' E 141°04'715.0
2018-May-03 07:00N 41°38' E 140°54'714.9
2018-May-03 06:30N 41°35' E 140°45'714.9
2018-May-03 06:01N 41°30' E 140°37'714.6
2018-May-03 05:31N 41°26' E 140°29'815.2
2018-May-03 05:00N 41°22' E 140°21'815.7
2018-May-03 04:30N 41°17' E 140°12'  
2018-Apr-25 22:40N 35°24' E 129°32'0 3.2
2018-Apr-25 22:30N 35°24' E 129°32'3 5.3
2018-Apr-25 22:00N 35°25' E 129°36'5 6.5
2018-Apr-25 21:18N 35°25' E 129°41'  
Track history (hours):
 
Tides and Currents Weather Stations Pressure Air Temp Water Temp Dewpoint Dewpoint Depression Visibility Wind Speed Wind Dir Waves Ship Positions

Sc Draco

Last reported at 2018-May-03 08:53 UTC. Time now 2018-May-27 11:42 UTC.
Position N 41°38' E 141°29'.
Warning: this ship's position is 24 days out of date.

Length 182 m; draft 10.2 m.

Type: Ship. MMSI: 477439800.

Date/timePositionNaut miles runAvg speedWind from/ knotsBaromVisibWave heightAir tempDewpointWater temp
2018-May-03 08:53N 41°38' E 141°29'512.6
2018-May-03 08:30N 41°38' E 141°22'612.7
2018-May-03 08:00N 41°38' E 141°13'714.1
2018-May-03 07:30N 41°38' E 141°04'715.0
2018-May-03 07:00N 41°38' E 140°54'714.9
2018-May-03 06:30N 41°35' E 140°45'714.9
2018-May-03 06:01N 41°30' E 140°37'714.6
2018-May-03 05:31N 41°26' E 140°29'815.2
2018-May-03 05:00N 41°22' E 140°21'815.7
2018-May-03 04:30N 41°17' E 140°12'  
2018-Apr-25 22:40N 35°24' E 129°32'0 3.2
2018-Apr-25 22:30N 35°24' E 129°32'3 5.3
2018-Apr-25 22:00N 35°25' E 129°36'5 6.5
2018-Apr-25 21:18N 35°25' E 129°41'  

Dump ship's entire track history